Davenport Municipal Airport

Current Flights

Departures
Number Departure To Airline
Arrivals
Number Arrival From Airline
Info
Name: Davenport Municipal Airport
Identifier:  DVN/KDVN
Local Time:  19. May 14:34
City
Flights per Day
4 flights
Distance: 339km (210mi)
Punctuality
87% (0 flights per day delayed)
Delay Average: 309 minutes
Current Weather
 18 C (Humidity: 88%)
  11kt (20km/h / 12mph) from 190°
  Scattered clouds at 1,200 feet (365 meter)
  Broken clouds at 1,800 feet (548 meter)
  Broken clouds at 3,500 feet (1,066 meter)
  16km (10 mi.)
 METAR KDVN 191352Z AUTO 19011KT 10SM SCT012 BKN018 BKN035 18/16 A2957 RMK AO2 LTG DSNT W RAB15E25 SLP007 P0000 T01780156

Current Delays

Departures
N/A
Arrivals
N/A

Destinations

Top Destinations
Airport Flights
per week
Seats
per week
  Des Moines (DSM) <1 - 0 0
  Fort Wayne (FWA) <1 - 0 0
  Muscatine (MUT) <1 - 0 0
  Indianapolis (IND) <1 - 0 0
  Dubuque (DBQ) <1 - 0 0
  Chicago (DPA) <1 - 0 0

Airlines & Planes

Top Airlines
Airline Flights
per Day
Seats
per Day
  National Airlines <1 -
  Nolinor Aviation <1 -
Nordwind Airlines <1 -
NetJets <1 -
Jet Charter Inc ( Franklin Lakes Nj ) <1 -
  Novair <1 -
  Air Wisconsin <1 1
Top Plane Types
Manufacturer Model Flights Seats
Beech G36 Bonanza 0.6/day - 0
Beech B200 Super King Air 0.5/day - 0
Beech E90 King Air 0.5/day - 0
Beech 58 0.3/day - 0
Beech B300 Super King Air 350 0.2/day - 0
Cessna C560 0.2/day - 0
Cessna C56X 0.1/day - -0.26666666666666666